sensor_id;sensor_type;location;lat;lon;timestamp;P1;durP1;ratioP1;P2;durP2;ratioP2
8066;SDS011;4076;48.076;9.118;2023-03-12T00:00:39;5.13;;;2.30;;
8066;SDS011;4076;48.076;9.118;2023-03-12T00:03:05;4.30;;;2.47;;
8066;SDS011;4076;48.076;9.118;2023-03-12T00:05:31;3.27;;;2.57;;
8066;SDS011;4076;48.076;9.118;2023-03-12T00:07:56;5.13;;;3.37;;
8066;SDS011;4076;48.076;9.118;2023-03-12T00:10:24;4.37;;;2.83;;
8066;SDS011;4076;48.076;9.118;2023-03-12T00:12:50;4.57;;;2.47;;
8066;SDS011;4076;48.076;9.118;2023-03-12T00:15:16;3.57;;;2.70;;
8066;SDS011;4076;48.076;9.118;2023-03-12T00:17:41;5.27;;;4.03;;
8066;SDS011;4076;48.076;9.118;2023-03-12T00:20:07;3.50;;;2.77;;
8066;SDS011;4076;48.076;9.118;2023-03-12T00:22:34;2.80;;;2.10;;
8066;SDS011;4076;48.076;9.118;2023-03-12T00:25:00;4.47;;;1.93;;
8066;SDS011;4076;48.076;9.118;2023-03-12T00:27:26;3.93;;;2.47;;
8066;SDS011;4076;48.076;9.118;2023-03-12T00:29:51;4.13;;;2.70;;
8066;SDS011;4076;48.076;9.118;2023-03-12T00:32:17;4.30;;;3.10;;
8066;SDS011;4076;48.076;9.118;2023-03-12T00:34:43;4.50;;;3.40;;
8066;SDS011;4076;48.076;9.118;2023-03-12T00:37:14;2.73;;;2.30;;
8066;SDS011;4076;48.076;9.118;2023-03-12T00:39:39;6.13;;;2.27;;
8066;SDS011;4076;48.076;9.118;2023-03-12T00:42:05;4.20;;;2.90;;
8066;SDS011;4076;48.076;9.118;2023-03-12T00:44:30;4.33;;;2.30;;
8066;SDS011;4076;48.076;9.118;2023-03-12T00:46:56;3.50;;;2.00;;
8066;SDS011;4076;48.076;9.118;2023-03-12T00:49:21;7.20;;;3.00;;
8066;SDS011;4076;48.076;9.118;2023-03-12T00:51:47;3.53;;;2.67;;
8066;SDS011;4076;48.076;9.118;2023-03-12T00:54:12;3.03;;;2.30;;
8066;SDS011;4076;48.076;9.118;2023-03-12T00:56:38;4.10;;;2.30;;
8066;SDS011;4076;48.076;9.118;2023-03-12T00:59:03;2.23;;;2.00;;
8066;SDS011;4076;48.076;9.118;2023-03-12T01:01:29;5.27;;;2.17;;
8066;SDS011;4076;48.076;9.118;2023-03-12T01:03:54;5.47;;;2.50;;
8066;SDS011;4076;48.076;9.118;2023-03-12T01:06:22;3.53;;;2.80;;
8066;SDS011;4076;48.076;9.118;2023-03-12T01:08:47;4.60;;;2.10;;
8066;SDS011;4076;48.076;9.118;2023-03-12T01:11:17;3.63;;;2.27;;
8066;SDS011;4076;48.076;9.118;2023-03-12T01:13:45;3.00;;;2.40;;
8066;SDS011;4076;48.076;9.118;2023-03-12T01:16:11;3.70;;;2.17;;
8066;SDS011;4076;48.076;9.118;2023-03-12T01:18:36;2.33;;;2.13;;
8066;SDS011;4076;48.076;9.118;2023-03-12T01:21:02;5.90;;;2.50;;
8066;SDS011;4076;48.076;9.118;2023-03-12T01:23:28;3.30;;;2.77;;
8066;SDS011;4076;48.076;9.118;2023-03-12T01:25:54;8.73;;;4.43;;
8066;SDS011;4076;48.076;9.118;2023-03-12T01:28:20;3.40;;;2.87;;
8066;SDS011;4076;48.076;9.118;2023-03-12T01:30:46;3.70;;;2.50;;
8066;SDS011;4076;48.076;9.118;2023-03-12T01:33:12;4.23;;;2.60;;
8066;SDS011;4076;48.076;9.118;2023-03-12T01:35:38;3.13;;;2.40;;
8066;SDS011;4076;48.076;9.118;2023-03-12T01:38:08;5.40;;;4.90;;
8066;SDS011;4076;48.076;9.118;2023-03-12T01:40:37;3.70;;;3.30;;
8066;SDS011;4076;48.076;9.118;2023-03-12T01:46:00;8.40;;;3.60;;
8066;SDS011;4076;48.076;9.118;2023-03-12T01:48:31;7.03;;;3.40;;
8066;SDS011;4076;48.076;9.118;2023-03-12T01:51:02;4.10;;;3.33;;
8066;SDS011;4076;48.076;9.118;2023-03-12T01:53:28;4.13;;;2.87;;
8066;SDS011;4076;48.076;9.118;2023-03-12T01:55:54;5.30;;;2.77;;
8066;SDS011;4076;48.076;9.118;2023-03-12T01:58:22;3.50;;;2.33;;
8066;SDS011;4076;48.076;9.118;2023-03-12T02:00:48;4.70;;;2.60;;
8066;SDS011;4076;48.076;9.118;2023-03-12T02:03:13;6.10;;;3.50;;
8066;SDS011;4076;48.076;9.118;2023-03-12T02:05:53;5.20;;;3.10;;
8066;SDS011;4076;48.076;9.118;2023-03-12T02:08:22;4.53;;;3.20;;
8066;SDS011;4076;48.076;9.118;2023-03-12T02:10:48;4.70;;;3.30;;
8066;SDS011;4076;48.076;9.118;2023-03-12T02:13:14;3.83;;;2.70;;
8066;SDS011;4076;48.076;9.118;2023-03-12T02:15:40;3.80;;;2.53;;
8066;SDS011;4076;48.076;9.118;2023-03-12T02:18:10;4.73;;;3.17;;
8066;SDS011;4076;48.076;9.118;2023-03-12T02:20:49;5.20;;;2.90;;
8066;SDS011;4076;48.076;9.118;2023-03-12T02:26:21;6.00;;;2.47;;
8066;SDS011;4076;48.076;9.118;2023-03-12T02:28:49;4.30;;;2.73;;
8066;SDS011;4076;48.076;9.118;2023-03-12T02:31:17;4.03;;;2.83;;
8066;SDS011;4076;48.076;9.118;2023-03-12T02:33:45;4.97;;;2.80;;
8066;SDS011;4076;48.076;9.118;2023-03-12T02:36:11;6.63;;;3.30;;
8066;SDS011;4076;48.076;9.118;2023-03-12T02:38:41;3.97;;;3.00;;
8066;SDS011;4076;48.076;9.118;2023-03-12T02:43:38;4.60;;;2.57;;
8066;SDS011;4076;48.076;9.118;2023-03-12T02:46:05;3.67;;;2.60;;
8066;SDS011;4076;48.076;9.118;2023-03-12T02:48:32;3.10;;;2.80;;
8066;SDS011;4076;48.076;9.118;2023-03-12T02:50:58;3.60;;;2.70;;
8066;SDS011;4076;48.076;9.118;2023-03-12T02:53:23;5.37;;;3.00;;
8066;SDS011;4076;48.076;9.118;2023-03-12T02:55:49;4.73;;;3.00;;
8066;SDS011;4076;48.076;9.118;2023-03-12T02:58:14;4.50;;;2.90;;
8066;SDS011;4076;48.076;9.118;2023-03-12T03:00:40;4.47;;;3.03;;
8066;SDS011;4076;48.076;9.118;2023-03-12T03:03:06;2.90;;;2.53;;
8066;SDS011;4076;48.076;9.118;2023-03-12T03:05:31;3.40;;;2.57;;
8066;SDS011;4076;48.076;9.118;2023-03-12T03:07:57;3.90;;;2.03;;
8066;SDS011;4076;48.076;9.118;2023-03-12T03:10:22;3.33;;;2.37;;
8066;SDS011;4076;48.076;9.118;2023-03-12T03:12:48;3.73;;;2.50;;
8066;SDS011;4076;48.076;9.118;2023-03-12T03:15:15;3.67;;;2.97;;
8066;SDS011;4076;48.076;9.118;2023-03-12T03:17:40;4.00;;;2.47;;
8066;SDS011;4076;48.076;9.118;2023-03-12T03:20:06;2.97;;;2.50;;
8066;SDS011;4076;48.076;9.118;2023-03-12T03:22:35;4.80;;;2.63;;
8066;SDS011;4076;48.076;9.118;2023-03-12T03:25:01;3.10;;;2.60;;
8066;SDS011;4076;48.076;9.118;2023-03-12T03:27:27;5.03;;;3.70;;
8066;SDS011;4076;48.076;9.118;2023-03-12T03:29:53;4.23;;;3.13;;
8066;SDS011;4076;48.076;9.118;2023-03-12T03:32:18;6.70;;;3.00;;
8066;SDS011;4076;48.076;9.118;2023-03-12T03:34:44;3.40;;;2.53;;
8066;SDS011;4076;48.076;9.118;2023-03-12T03:37:10;4.87;;;2.97;;
8066;SDS011;4076;48.076;9.118;2023-03-12T03:39:35;5.20;;;2.70;;
8066;SDS011;4076;48.076;9.118;2023-03-12T03:42:01;3.47;;;2.40;;
8066;SDS011;4076;48.076;9.118;2023-03-12T03:44:26;3.13;;;2.30;;
8066;SDS011;4076;48.076;9.118;2023-03-12T03:46:52;4.63;;;3.20;;
8066;SDS011;4076;48.076;9.118;2023-03-12T03:49:19;4.00;;;2.77;;
8066;SDS011;4076;48.076;9.118;2023-03-12T03:51:45;4.20;;;2.97;;
8066;SDS011;4076;48.076;9.118;2023-03-12T03:54:11;3.80;;;3.30;;
8066;SDS011;4076;48.076;9.118;2023-03-12T03:56:36;3.87;;;2.57;;
8066;SDS011;4076;48.076;9.118;2023-03-12T03:59:03;4.57;;;3.10;;
8066;SDS011;4076;48.076;9.118;2023-03-12T04:01:29;4.87;;;2.83;;
8066;SDS011;4076;48.076;9.118;2023-03-12T04:03:55;5.43;;;3.67;;
8066;SDS011;4076;48.076;9.118;2023-03-12T04:06:21;4.80;;;3.13;;
8066;SDS011;4076;48.076;9.118;2023-03-12T04:08:46;8.20;;;4.40;;
8066;SDS011;4076;48.076;9.118;2023-03-12T04:11:13;4.97;;;3.47;;
8066;SDS011;4076;48.076;9.118;2023-03-12T04:13:40;5.90;;;3.90;;
8066;SDS011;4076;48.076;9.118;2023-03-12T04:16:06;4.77;;;4.00;;
8066;SDS011;4076;48.076;9.118;2023-03-12T04:18:32;6.23;;;2.90;;
8066;SDS011;4076;48.076;9.118;2023-03-12T04:21:00;5.40;;;3.10;;
8066;SDS011;4076;48.076;9.118;2023-03-12T04:23:26;6.60;;;3.30;;
8066;SDS011;4076;48.076;9.118;2023-03-12T04:25:51;3.53;;;2.67;;
8066;SDS011;4076;48.076;9.118;2023-03-12T04:28:17;4.77;;;3.00;;
8066;SDS011;4076;48.076;9.118;2023-03-12T04:30:42;6.10;;;3.60;;
8066;SDS011;4076;48.076;9.118;2023-03-12T04:33:08;8.00;;;3.57;;
8066;SDS011;4076;48.076;9.118;2023-03-12T04:35:33;3.80;;;2.80;;
8066;SDS011;4076;48.076;9.118;2023-03-12T04:37:59;5.23;;;2.87;;
8066;SDS011;4076;48.076;9.118;2023-03-12T04:40:26;5.90;;;3.17;;
8066;SDS011;4076;48.076;9.118;2023-03-12T04:42:51;4.50;;;3.00;;
8066;SDS011;4076;48.076;9.118;2023-03-12T04:45:17;5.90;;;3.20;;
8066;SDS011;4076;48.076;9.118;2023-03-12T04:47:43;4.23;;;3.10;;
8066;SDS011;4076;48.076;9.118;2023-03-12T04:50:09;5.53;;;3.43;;
8066;SDS011;4076;48.076;9.118;2023-03-12T04:52:35;5.03;;;3.30;;
8066;SDS011;4076;48.076;9.118;2023-03-12T04:55:01;8.17;;;3.33;;
8066;SDS011;4076;48.076;9.118;2023-03-12T04:57:26;4.10;;;2.83;;
8066;SDS011;4076;48.076;9.118;2023-03-12T04:59:52;4.27;;;2.97;;
8066;SDS011;4076;48.076;9.118;2023-03-12T05:02:17;5.23;;;4.37;;
8066;SDS011;4076;48.076;9.118;2023-03-12T05:04:43;6.70;;;3.97;;
8066;SDS011;4076;48.076;9.118;2023-03-12T05:07:09;3.97;;;3.57;;
8066;SDS011;4076;48.076;9.118;2023-03-12T05:09:34;4.43;;;3.20;;
8066;SDS011;4076;48.076;9.118;2023-03-12T05:12:00;6.60;;;4.50;;
8066;SDS011;4076;48.076;9.118;2023-03-12T05:14:25;6.00;;;3.67;;
8066;SDS011;4076;48.076;9.118;2023-03-12T05:16:51;6.80;;;4.30;;
8066;SDS011;4076;48.076;9.118;2023-03-12T05:19:16;4.97;;;3.07;;
8066;SDS011;4076;48.076;9.118;2023-03-12T05:21:42;13.97;;;9.47;;
8066;SDS011;4076;48.076;9.118;2023-03-12T05:24:08;14.53;;;10.07;;
8066;SDS011;4076;48.076;9.118;2023-03-12T05:26:35;13.30;;;7.87;;
8066;SDS011;4076;48.076;9.118;2023-03-12T05:29:02;11.27;;;6.37;;
8066;SDS011;4076;48.076;9.118;2023-03-12T05:31:29;5.80;;;4.27;;
8066;SDS011;4076;48.076;9.118;2023-03-12T05:33:59;5.90;;;4.07;;
8066;SDS011;4076;48.076;9.118;2023-03-12T05:36:26;8.07;;;4.20;;
8066;SDS011;4076;48.076;9.118;2023-03-12T05:38:51;8.70;;;5.27;;
8066;SDS011;4076;48.076;9.118;2023-03-12T05:41:22;6.47;;;3.97;;
8066;SDS011;4076;48.076;9.118;2023-03-12T05:43:49;6.30;;;3.30;;
8066;SDS011;4076;48.076;9.118;2023-03-12T05:46:16;6.87;;;5.33;;
8066;SDS011;4076;48.076;9.118;2023-03-12T05:48:42;5.77;;;3.50;;
8066;SDS011;4076;48.076;9.118;2023-03-12T05:51:07;6.17;;;4.00;;
8066;SDS011;4076;48.076;9.118;2023-03-12T05:53:33;4.73;;;3.70;;
8066;SDS011;4076;48.076;9.118;2023-03-12T05:56:06;4.50;;;4.00;;
8066;SDS011;4076;48.076;9.118;2023-03-12T05:58:35;4.40;;;3.50;;
8066;SDS011;4076;48.076;9.118;2023-03-12T06:01:02;4.97;;;3.33;;
8066;SDS011;4076;48.076;9.118;2023-03-12T06:03:35;9.30;;;3.77;;
8066;SDS011;4076;48.076;9.118;2023-03-12T06:06:00;8.50;;;5.33;;
8066;SDS011;4076;48.076;9.118;2023-03-12T06:08:26;9.67;;;5.37;;
8066;SDS011;4076;48.076;9.118;2023-03-12T06:10:52;7.17;;;4.63;;
8066;SDS011;4076;48.076;9.118;2023-03-12T06:13:21;5.60;;;4.60;;
8066;SDS011;4076;48.076;9.118;2023-03-12T06:15:46;8.60;;;5.93;;
8066;SDS011;4076;48.076;9.118;2023-03-12T06:18:13;8.73;;;4.70;;
8066;SDS011;4076;48.076;9.118;2023-03-12T06:20:39;9.70;;;5.40;;
8066;SDS011;4076;48.076;9.118;2023-03-12T06:23:04;8.07;;;4.93;;
8066;SDS011;4076;48.076;9.118;2023-03-12T06:25:30;8.00;;;5.60;;
8066;SDS011;4076;48.076;9.118;2023-03-12T06:27:55;7.10;;;5.20;;
8066;SDS011;4076;48.076;9.118;2023-03-12T06:30:21;7.13;;;5.40;;
8066;SDS011;4076;48.076;9.118;2023-03-12T06:32:46;11.27;;;6.13;;
8066;SDS011;4076;48.076;9.118;2023-03-12T06:35:12;7.93;;;5.90;;
8066;SDS011;4076;48.076;9.118;2023-03-12T06:37:38;6.73;;;5.00;;
8066;SDS011;4076;48.076;9.118;2023-03-12T06:40:03;7.00;;;4.67;;
8066;SDS011;4076;48.076;9.118;2023-03-12T06:42:31;8.70;;;4.90;;
8066;SDS011;4076;48.076;9.118;2023-03-12T06:44:57;8.00;;;5.07;;
8066;SDS011;4076;48.076;9.118;2023-03-12T06:47:22;8.93;;;5.40;;
8066;SDS011;4076;48.076;9.118;2023-03-12T06:49:48;9.40;;;5.20;;
8066;SDS011;4076;48.076;9.118;2023-03-12T06:52:14;7.00;;;5.33;;
8066;SDS011;4076;48.076;9.118;2023-03-12T06:54:39;10.43;;;8.20;;
8066;SDS011;4076;48.076;9.118;2023-03-12T06:57:05;17.30;;;13.47;;
8066;SDS011;4076;48.076;9.118;2023-03-12T06:59:30;15.57;;;10.03;;
8066;SDS011;4076;48.076;9.118;2023-03-12T07:01:56;8.10;;;5.60;;
8066;SDS011;4076;48.076;9.118;2023-03-12T07:04:21;12.97;;;8.00;;
8066;SDS011;4076;48.076;9.118;2023-03-12T07:06:47;8.10;;;5.90;;
8066;SDS011;4076;48.076;9.118;2023-03-12T07:09:15;8.10;;;6.17;;
8066;SDS011;4076;48.076;9.118;2023-03-12T07:11:42;12.40;;;6.27;;
8066;SDS011;4076;48.076;9.118;2023-03-12T07:14:07;9.33;;;7.27;;
8066;SDS011;4076;48.076;9.118;2023-03-12T07:16:33;15.03;;;7.30;;
8066;SDS011;4076;48.076;9.118;2023-03-12T07:18:59;10.47;;;6.67;;
8066;SDS011;4076;48.076;9.118;2023-03-12T07:21:24;10.33;;;7.03;;
8066;SDS011;4076;48.076;9.118;2023-03-12T07:23:51;12.43;;;8.20;;
8066;SDS011;4076;48.076;9.118;2023-03-12T07:26:17;11.87;;;8.23;;
8066;SDS011;4076;48.076;9.118;2023-03-12T07:28:43;17.03;;;12.77;;
8066;SDS011;4076;48.076;9.118;2023-03-12T07:31:08;12.10;;;8.80;;
8066;SDS011;4076;48.076;9.118;2023-03-12T07:33:34;17.83;;;10.73;;
8066;SDS011;4076;48.076;9.118;2023-03-12T07:36:00;18.80;;;10.73;;
8066;SDS011;4076;48.076;9.118;2023-03-12T07:38:26;20.07;;;10.90;;
8066;SDS011;4076;48.076;9.118;2023-03-12T07:40:52;16.83;;;10.83;;
8066;SDS011;4076;48.076;9.118;2023-03-12T07:43:19;15.77;;;10.27;;
8066;SDS011;4076;48.076;9.118;2023-03-12T07:45:44;14.93;;;11.43;;
8066;SDS011;4076;48.076;9.118;2023-03-12T07:48:10;17.77;;;12.23;;
8066;SDS011;4076;48.076;9.118;2023-03-12T07:50:36;15.63;;;11.30;;
8066;SDS011;4076;48.076;9.118;2023-03-12T07:53:02;18.70;;;11.50;;
8066;SDS011;4076;48.076;9.118;2023-03-12T07:55:28;11.60;;;8.93;;
8066;SDS011;4076;48.076;9.118;2023-03-12T07:57:54;10.50;;;7.80;;
8066;SDS011;4076;48.076;9.118;2023-03-12T08:00:22;15.83;;;8.90;;
8066;SDS011;4076;48.076;9.118;2023-03-12T08:02:48;9.17;;;7.30;;
8066;SDS011;4076;48.076;9.118;2023-03-12T08:05:14;11.20;;;6.70;;
8066;SDS011;4076;48.076;9.118;2023-03-12T08:07:39;10.23;;;7.67;;
8066;SDS011;4076;48.076;9.118;2023-03-12T08:10:06;10.33;;;7.80;;
8066;SDS011;4076;48.076;9.118;2023-03-12T08:12:32;7.77;;;6.37;;
8066;SDS011;4076;48.076;9.118;2023-03-12T08:14:58;9.93;;;8.00;;
8066;SDS011;4076;48.076;9.118;2023-03-12T08:17:24;10.70;;;8.50;;
8066;SDS011;4076;48.076;9.118;2023-03-12T08:19:49;10.03;;;7.27;;
8066;SDS011;4076;48.076;9.118;2023-03-12T08:22:15;8.30;;;7.23;;
8066;SDS011;4076;48.076;9.118;2023-03-12T08:24:41;6.27;;;4.50;;
8066;SDS011;4076;48.076;9.118;2023-03-12T08:27:07;7.40;;;5.23;;
8066;SDS011;4076;48.076;9.118;2023-03-12T08:29:33;13.70;;;12.30;;
8066;SDS011;4076;48.076;9.118;2023-03-12T08:31:59;9.00;;;7.57;;
8066;SDS011;4076;48.076;9.118;2023-03-12T08:34:24;6.33;;;4.77;;
8066;SDS011;4076;48.076;9.118;2023-03-12T08:36:50;8.53;;;5.30;;
8066;SDS011;4076;48.076;9.118;2023-03-12T08:39:15;5.47;;;4.47;;
8066;SDS011;4076;48.076;9.118;2023-03-12T08:41:41;8.13;;;7.10;;
8066;SDS011;4076;48.076;9.118;2023-03-12T08:44:06;7.63;;;4.63;;
8066;SDS011;4076;48.076;9.118;2023-03-12T08:46:32;7.70;;;5.10;;
8066;SDS011;4076;48.076;9.118;2023-03-12T08:48:58;7.43;;;5.73;;
8066;SDS011;4076;48.076;9.118;2023-03-12T08:51:24;6.60;;;4.03;;
8066;SDS011;4076;48.076;9.118;2023-03-12T08:53:49;7.00;;;4.90;;
8066;SDS011;4076;48.076;9.118;2023-03-12T08:56:15;8.53;;;4.70;;
8066;SDS011;4076;48.076;9.118;2023-03-12T08:58:41;8.50;;;6.13;;
8066;SDS011;4076;48.076;9.118;2023-03-12T09:01:09;11.07;;;6.20;;
8066;SDS011;4076;48.076;9.118;2023-03-12T09:03:36;7.80;;;4.73;;
8066;SDS011;4076;48.076;9.118;2023-03-12T09:06:06;7.17;;;5.53;;
8066;SDS011;4076;48.076;9.118;2023-03-12T09:08:37;7.50;;;4.40;;
8066;SDS011;4076;48.076;9.118;2023-03-12T09:11:03;8.23;;;6.50;;
8066;SDS011;4076;48.076;9.118;2023-03-12T09:13:29;8.80;;;5.30;;
8066;SDS011;4076;48.076;9.118;2023-03-12T09:15:58;9.23;;;6.40;;
8066;SDS011;4076;48.076;9.118;2023-03-12T09:18:26;8.20;;;4.63;;
8066;SDS011;4076;48.076;9.118;2023-03-12T09:20:52;7.50;;;4.83;;
8066;SDS011;4076;48.076;9.118;2023-03-12T09:23:18;6.20;;;4.07;;
8066;SDS011;4076;48.076;9.118;2023-03-12T09:25:44;8.00;;;4.67;;
8066;SDS011;4076;48.076;9.118;2023-03-12T09:28:10;7.13;;;4.80;;
8066;SDS011;4076;48.076;9.118;2023-03-12T09:30:36;8.30;;;5.70;;
8066;SDS011;4076;48.076;9.118;2023-03-12T09:33:01;7.97;;;4.80;;
8066;SDS011;4076;48.076;9.118;2023-03-12T09:35:27;7.83;;;5.60;;
8066;SDS011;4076;48.076;9.118;2023-03-12T09:37:53;8.17;;;5.77;;
8066;SDS011;4076;48.076;9.118;2023-03-12T09:40:19;10.00;;;5.67;;
8066;SDS011;4076;48.076;9.118;2023-03-12T09:42:57;6.73;;;4.57;;
8066;SDS011;4076;48.076;9.118;2023-03-12T09:45:26;6.83;;;6.00;;
8066;SDS011;4076;48.076;9.118;2023-03-12T09:48:00;6.10;;;3.90;;
8066;SDS011;4076;48.076;9.118;2023-03-12T09:50:35;6.30;;;4.83;;
8066;SDS011;4076;48.076;9.118;2023-03-12T09:53:16;5.43;;;3.73;;
8066;SDS011;4076;48.076;9.118;2023-03-12T09:55:57;8.13;;;4.67;;
8066;SDS011;4076;48.076;9.118;2023-03-12T10:00:54;4.90;;;4.23;;
8066;SDS011;4076;48.076;9.118;2023-03-12T10:03:29;7.40;;;4.03;;
8066;SDS011;4076;48.076;9.118;2023-03-12T10:06:22;5.83;;;4.03;;
8066;SDS011;4076;48.076;9.118;2023-03-12T10:12:13;6.90;;;4.93;;
8066;SDS011;4076;48.076;9.118;2023-03-12T10:20:39;7.10;;;4.33;;
8066;SDS011;4076;48.076;9.118;2023-03-12T10:25:52;7.10;;;4.10;;
8066;SDS011;4076;48.076;9.118;2023-03-12T10:28:21;7.50;;;4.90;;
8066;SDS011;4076;48.076;9.118;2023-03-12T10:30:59;8.90;;;4.80;;
8066;SDS011;4076;48.076;9.118;2023-03-12T10:33:40;7.00;;;4.77;;
8066;SDS011;4076;48.076;9.118;2023-03-12T10:36:15;6.63;;;5.00;;
8066;SDS011;4076;48.076;9.118;2023-03-12T10:38:43;7.40;;;6.10;;
8066;SDS011;4076;48.076;9.118;2023-03-12T10:41:13;10.50;;;6.80;;
8066;SDS011;4076;48.076;9.118;2023-03-12T10:43:46;8.23;;;5.50;;
8066;SDS011;4076;48.076;9.118;2023-03-12T10:46:25;8.73;;;5.83;;
8066;SDS011;4076;48.076;9.118;2023-03-12T10:51:54;11.50;;;7.83;;
8066;SDS011;4076;48.076;9.118;2023-03-12T10:54:26;8.43;;;6.10;;
8066;SDS011;4076;48.076;9.118;2023-03-12T10:56:53;8.67;;;6.23;;
8066;SDS011;4076;48.076;9.118;2023-03-12T10:59:20;9.83;;;5.80;;
8066;SDS011;4076;48.076;9.118;2023-03-12T11:01:48;9.43;;;5.83;;
8066;SDS011;4076;48.076;9.118;2023-03-12T11:04:16;8.43;;;6.30;;
8066;SDS011;4076;48.076;9.118;2023-03-12T11:07:03;9.53;;;6.10;;
8066;SDS011;4076;48.076;9.118;2023-03-12T11:09:38;9.40;;;7.07;;
8066;SDS011;4076;48.076;9.118;2023-03-12T11:12:21;10.27;;;7.80;;
8066;SDS011;4076;48.076;9.118;2023-03-12T11:14:51;7.83;;;4.47;;
8066;SDS011;4076;48.076;9.118;2023-03-12T11:17:21;7.67;;;5.20;;
8066;SDS011;4076;48.076;9.118;2023-03-12T11:19:49;11.40;;;5.90;;
8066;SDS011;4076;48.076;9.118;2023-03-12T11:22:25;8.60;;;5.70;;
8066;SDS011;4076;48.076;9.118;2023-03-12T11:24:54;10.57;;;7.17;;
8066;SDS011;4076;48.076;9.118;2023-03-12T11:30:01;9.10;;;6.53;;
8066;SDS011;4076;48.076;9.118;2023-03-12T11:32:31;9.30;;;6.10;;
8066;SDS011;4076;48.076;9.118;2023-03-12T11:35:00;8.10;;;6.00;;
8066;SDS011;4076;48.076;9.118;2023-03-12T11:40:31;7.80;;;5.17;;
8066;SDS011;4076;48.076;9.118;2023-03-12T11:49:01;7.93;;;4.87;;
8066;SDS011;4076;48.076;9.118;2023-03-12T11:54:24;7.43;;;5.20;;
8066;SDS011;4076;48.076;9.118;2023-03-12T11:57:23;9.00;;;6.83;;
8066;SDS011;4076;48.076;9.118;2023-03-12T12:10:45;3.40;;;1.60;;
8066;SDS011;4076;48.076;9.118;2023-03-12T12:24:23;5.37;;;3.23;;
8066;SDS011;4076;48.076;9.118;2023-03-12T12:27:27;3.70;;;1.53;;
8066;SDS011;4076;48.076;9.118;2023-03-12T12:35:38;2.50;;;1.20;;
8066;SDS011;4076;48.076;9.118;2023-03-12T12:43:29;3.03;;;1.20;;
8066;SDS011;4076;48.076;9.118;2023-03-12T12:46:04;5.97;;;1.20;;
8066;SDS011;4076;48.076;9.118;2023-03-12T12:48:37;2.30;;;1.10;;
8066;SDS011;4076;48.076;9.118;2023-03-12T12:51:10;2.17;;;1.20;;
8066;SDS011;4076;48.076;9.118;2023-03-12T12:53:43;7.13;;;1.43;;
8066;SDS011;4076;48.076;9.118;2023-03-12T12:56:12;3.70;;;1.80;;
8066;SDS011;4076;48.076;9.118;2023-03-12T12:59:07;3.03;;;1.30;;
8066;SDS011;4076;48.076;9.118;2023-03-12T13:01:49;2.77;;;1.70;;
8066;SDS011;4076;48.076;9.118;2023-03-12T13:04:25;2.40;;;1.23;;
8066;SDS011;4076;48.076;9.118;2023-03-12T13:07:02;2.80;;;2.20;;
8066;SDS011;4076;48.076;9.118;2023-03-12T13:09:44;2.33;;;0.90;;
8066;SDS011;4076;48.076;9.118;2023-03-12T13:14:46;1.80;;;0.90;;
8066;SDS011;4076;48.076;9.118;2023-03-12T13:19:51;2.23;;;1.43;;
8066;SDS011;4076;48.076;9.118;2023-03-12T13:22:39;2.33;;;1.10;;
8066;SDS011;4076;48.076;9.118;2023-03-12T13:36:42;8.50;;;5.80;;
8066;SDS011;4076;48.076;9.118;2023-03-12T13:49:53;10.73;;;7.67;;
8066;SDS011;4076;48.076;9.118;2023-03-12T13:52:32;6.20;;;4.57;;
8066;SDS011;4076;48.076;9.118;2023-03-12T14:00:10;7.30;;;2.87;;
8066;SDS011;4076;48.076;9.118;2023-03-12T14:03:00;7.40;;;4.43;;
8066;SDS011;4076;48.076;9.118;2023-03-12T14:06:11;5.67;;;3.00;;
8066;SDS011;4076;48.076;9.118;2023-03-12T14:08:32;5.80;;;3.10;;
8066;SDS011;4076;48.076;9.118;2023-03-12T14:19:16;2.40;;;1.23;;
8066;SDS011;4076;48.076;9.118;2023-03-12T14:21:46;3.20;;;1.13;;
8066;SDS011;4076;48.076;9.118;2023-03-12T14:27:13;3.27;;;1.37;;
8066;SDS011;4076;48.076;9.118;2023-03-12T14:29:51;5.00;;;1.17;;
8066;SDS011;4076;48.076;9.118;2023-03-12T14:32:21;2.03;;;0.90;;
8066;SDS011;4076;48.076;9.118;2023-03-12T14:34:53;3.60;;;1.30;;
8066;SDS011;4076;48.076;9.118;2023-03-12T14:37:36;2.77;;;1.10;;
8066;SDS011;4076;48.076;9.118;2023-03-12T14:40:11;2.93;;;1.40;;
8066;SDS011;4076;48.076;9.118;2023-03-12T14:43:01;3.50;;;1.53;;
8066;SDS011;4076;48.076;9.118;2023-03-12T14:45:27;4.20;;;1.70;;
8066;SDS011;4076;48.076;9.118;2023-03-12T14:47:54;2.20;;;1.10;;
8066;SDS011;4076;48.076;9.118;2023-03-12T14:50:26;2.30;;;1.17;;
8066;SDS011;4076;48.076;9.118;2023-03-12T14:53:20;3.03;;;1.50;;
8066;SDS011;4076;48.076;9.118;2023-03-12T14:56:11;3.07;;;1.30;;
8066;SDS011;4076;48.076;9.118;2023-03-12T14:58:42;4.13;;;1.20;;
8066;SDS011;4076;48.076;9.118;2023-03-12T15:01:15;2.77;;;1.30;;
8066;SDS011;4076;48.076;9.118;2023-03-12T15:03:47;2.63;;;1.20;;
8066;SDS011;4076;48.076;9.118;2023-03-12T15:08:55;3.33;;;1.30;;
8066;SDS011;4076;48.076;9.118;2023-03-12T15:11:22;4.00;;;1.27;;
8066;SDS011;4076;48.076;9.118;2023-03-12T15:13:51;3.17;;;1.23;;
8066;SDS011;4076;48.076;9.118;2023-03-12T15:16:19;7.93;;;1.40;;
8066;SDS011;4076;48.076;9.118;2023-03-12T15:18:45;3.77;;;1.30;;
8066;SDS011;4076;48.076;9.118;2023-03-12T15:21:13;3.90;;;1.80;;
8066;SDS011;4076;48.076;9.118;2023-03-12T15:23:38;3.33;;;1.10;;
8066;SDS011;4076;48.076;9.118;2023-03-12T15:28:55;3.10;;;1.67;;
8066;SDS011;4076;48.076;9.118;2023-03-12T15:31:26;3.90;;;1.20;;
8066;SDS011;4076;48.076;9.118;2023-03-12T15:34:04;13.60;;;4.03;;
8066;SDS011;4076;48.076;9.118;2023-03-12T15:36:30;3.30;;;1.83;;
8066;SDS011;4076;48.076;9.118;2023-03-12T15:39:02;4.27;;;1.40;;
8066;SDS011;4076;48.076;9.118;2023-03-12T15:41:42;4.77;;;2.17;;
8066;SDS011;4076;48.076;9.118;2023-03-12T15:44:15;6.27;;;2.20;;
8066;SDS011;4076;48.076;9.118;2023-03-12T15:46:52;3.77;;;1.97;;
8066;SDS011;4076;48.076;9.118;2023-03-12T15:49:24;4.90;;;1.97;;
8066;SDS011;4076;48.076;9.118;2023-03-12T15:52:23;4.37;;;1.73;;
8066;SDS011;4076;48.076;9.118;2023-03-12T16:00:50;3.10;;;1.60;;
8066;SDS011;4076;48.076;9.118;2023-03-12T16:03:17;3.80;;;1.70;;
8066;SDS011;4076;48.076;9.118;2023-03-12T16:05:44;6.27;;;4.10;;
8066;SDS011;4076;48.076;9.118;2023-03-12T16:10:45;6.50;;;2.30;;
8066;SDS011;4076;48.076;9.118;2023-03-12T16:13:13;7.30;;;2.63;;
8066;SDS011;4076;48.076;9.118;2023-03-12T16:15:40;3.53;;;1.77;;
8066;SDS011;4076;48.076;9.118;2023-03-12T16:18:13;4.17;;;1.90;;
8066;SDS011;4076;48.076;9.118;2023-03-12T16:20:40;3.80;;;1.33;;
8066;SDS011;4076;48.076;9.118;2023-03-12T16:23:06;5.70;;;2.60;;
8066;SDS011;4076;48.076;9.118;2023-03-12T16:25:32;4.93;;;2.97;;
8066;SDS011;4076;48.076;9.118;2023-03-12T16:27:59;3.47;;;1.70;;
8066;SDS011;4076;48.076;9.118;2023-03-12T16:32:54;3.10;;;1.47;;
8066;SDS011;4076;48.076;9.118;2023-03-12T16:35:20;8.03;;;2.43;;
8066;SDS011;4076;48.076;9.118;2023-03-12T16:37:46;4.03;;;1.97;;
8066;SDS011;4076;48.076;9.118;2023-03-12T16:40:12;4.70;;;1.60;;
8066;SDS011;4076;48.076;9.118;2023-03-12T16:42:40;2.90;;;1.50;;
8066;SDS011;4076;48.076;9.118;2023-03-12T16:45:10;4.97;;;1.40;;
8066;SDS011;4076;48.076;9.118;2023-03-12T16:47:37;3.17;;;1.40;;
8066;SDS011;4076;48.076;9.118;2023-03-12T16:50:11;4.57;;;1.97;;
8066;SDS011;4076;48.076;9.118;2023-03-12T16:52:38;2.67;;;1.33;;
8066;SDS011;4076;48.076;9.118;2023-03-12T16:55:04;3.50;;;1.30;;
8066;SDS011;4076;48.076;9.118;2023-03-12T16:57:33;6.93;;;1.43;;
8066;SDS011;4076;48.076;9.118;2023-03-12T17:00:02;3.40;;;2.13;;
8066;SDS011;4076;48.076;9.118;2023-03-12T17:02:32;2.53;;;1.50;;
8066;SDS011;4076;48.076;9.118;2023-03-12T17:04:59;3.50;;;1.70;;
8066;SDS011;4076;48.076;9.118;2023-03-12T17:07:24;2.70;;;1.70;;
8066;SDS011;4076;48.076;9.118;2023-03-12T17:09:50;5.33;;;3.07;;
8066;SDS011;4076;48.076;9.118;2023-03-12T17:12:37;2.40;;;1.30;;
8066;SDS011;4076;48.076;9.118;2023-03-12T17:15:12;3.50;;;1.73;;
8066;SDS011;4076;48.076;9.118;2023-03-12T17:17:47;5.67;;;1.40;;
8066;SDS011;4076;48.076;9.118;2023-03-12T17:20:14;8.93;;;1.80;;
8066;SDS011;4076;48.076;9.118;2023-03-12T17:22:41;3.10;;;1.50;;
8066;SDS011;4076;48.076;9.118;2023-03-12T17:25:15;5.07;;;1.43;;
8066;SDS011;4076;48.076;9.118;2023-03-12T17:27:43;3.53;;;1.40;;
8066;SDS011;4076;48.076;9.118;2023-03-12T17:30:09;5.50;;;3.80;;
8066;SDS011;4076;48.076;9.118;2023-03-12T17:32:35;8.83;;;2.40;;
8066;SDS011;4076;48.076;9.118;2023-03-12T17:35:00;5.50;;;1.80;;